sensor_id;sensor_type;location;lat;lon;timestamp;pressure;altitude;pressure_sealevel;temperature;humidity
61898;BME280;47850;50.274;18.908;2023-06-22T00:01:49;98266.83;;;20.01;86.05
61898;BME280;47850;50.274;18.908;2023-06-22T00:04:17;98270.13;;;19.99;86.34
61898;BME280;47850;50.274;18.908;2023-06-22T00:06:44;98265.21;;;19.98;86.33
61898;BME280;47850;50.274;18.908;2023-06-22T00:09:12;98261.68;;;19.92;86.46
61898;BME280;47850;50.274;18.908;2023-06-22T00:11:40;98261.58;;;19.88;86.56
61898;BME280;47850;50.274;18.908;2023-06-22T00:14:08;98264.77;;;19.85;86.76
61898;BME280;47850;50.274;18.908;2023-06-22T00:16:35;98269.13;;;19.81;87.05
61898;BME280;47850;50.274;18.908;2023-06-22T00:19:03;98275.58;;;19.78;86.95
61898;BME280;47850;50.274;18.908;2023-06-22T00:21:31;98278.41;;;19.76;87.09
61898;BME280;47850;50.274;18.908;2023-06-22T00:23:59;98281.79;;;19.75;86.89
61898;BME280;47850;50.274;18.908;2023-06-22T00:26:26;98285.48;;;19.73;87.30
61898;BME280;47850;50.274;18.908;2023-06-22T00:28:54;98285.27;;;19.69;87.51
61898;BME280;47850;50.274;18.908;2023-06-22T00:31:22;98294.23;;;19.64;87.63
61898;BME280;47850;50.274;18.908;2023-06-22T00:33:50;98297.88;;;19.58;87.51
61898;BME280;47850;50.274;18.908;2023-06-22T00:36:18;98290.64;;;19.53;87.39
61898;BME280;47850;50.274;18.908;2023-06-22T00:38:46;98283.09;;;19.49;87.35
61898;BME280;47850;50.274;18.908;2023-06-22T00:41:14;98280.43;;;19.46;87.51
61898;BME280;47850;50.274;18.908;2023-06-22T00:43:42;98279.61;;;19.43;87.55
61898;BME280;47850;50.274;18.908;2023-06-22T00:46:09;98282.99;;;19.43;87.50
61898;BME280;47850;50.274;18.908;2023-06-22T00:48:38;98282.08;;;19.39;87.55
61898;BME280;47850;50.274;18.908;2023-06-22T00:51:07;98280.87;;;19.37;87.59
61898;BME280;47850;50.274;18.908;2023-06-22T00:53:35;98281.95;;;19.35;87.36
61898;BME280;47850;50.274;18.908;2023-06-22T00:56:04;98282.31;;;19.33;87.64
61898;BME280;47850;50.274;18.908;2023-06-22T00:58:33;98289.30;;;19.29;87.91
61898;BME280;47850;50.274;18.908;2023-06-22T01:01:01;98299.29;;;19.25;87.60
61898;BME280;47850;50.274;18.908;2023-06-22T01:03:29;98296.24;;;19.23;87.65
61898;BME280;47850;50.274;18.908;2023-06-22T01:06:07;98289.80;;;19.18;87.81
61898;BME280;47850;50.274;18.908;2023-06-22T01:08:50;98281.36;;;19.14;87.92
61898;BME280;47850;50.274;18.908;2023-06-22T01:11:31;98272.96;;;19.11;87.60
61898;BME280;47850;50.274;18.908;2023-06-22T01:14:07;98271.45;;;19.10;87.39
61898;BME280;47850;50.274;18.908;2023-06-22T01:16:41;98274.52;;;19.10;87.35
61898;BME280;47850;50.274;18.908;2023-06-22T01:22:05;98282.83;;;19.11;87.28
61898;BME280;47850;50.274;18.908;2023-06-22T01:30:46;98285.37;;;19.19;87.59
61898;BME280;47850;50.274;18.908;2023-06-22T01:33:17;98286.20;;;19.22;87.45
61898;BME280;47850;50.274;18.908;2023-06-22T01:35:45;98292.94;;;19.24;87.52
61898;BME280;47850;50.274;18.908;2023-06-22T01:38:13;98290.84;;;19.25;87.56
61898;BME280;47850;50.274;18.908;2023-06-22T01:40:41;98289.97;;;19.25;87.51
61898;BME280;47850;50.274;18.908;2023-06-22T01:43:09;98291.23;;;19.25;87.50
61898;BME280;47850;50.274;18.908;2023-06-22T01:45:37;98287.52;;;19.24;87.65
61898;BME280;47850;50.274;18.908;2023-06-22T01:48:05;98286.02;;;19.21;87.98
61898;BME280;47850;50.274;18.908;2023-06-22T01:50:33;98288.36;;;19.18;88.02
61898;BME280;47850;50.274;18.908;2023-06-22T01:53:01;98287.38;;;19.14;88.03
61898;BME280;47850;50.274;18.908;2023-06-22T01:55:29;98289.35;;;19.09;87.93
61898;BME280;47850;50.274;18.908;2023-06-22T01:57:57;98289.45;;;19.05;87.90
61898;BME280;47850;50.274;18.908;2023-06-22T02:00:28;98287.33;;;19.05;87.82
61898;BME280;47850;50.274;18.908;2023-06-22T02:03:01;98289.04;;;19.04;87.68
61898;BME280;47850;50.274;18.908;2023-06-22T02:05:37;98286.80;;;19.02;87.74
61898;BME280;47850;50.274;18.908;2023-06-22T02:08:11;98287.96;;;19.01;87.81
61898;BME280;47850;50.274;18.908;2023-06-22T02:10:45;98294.20;;;19.01;87.56
61898;BME280;47850;50.274;18.908;2023-06-22T02:13:14;98297.47;;;18.97;87.63
61898;BME280;47850;50.274;18.908;2023-06-22T02:15:43;98300.59;;;18.95;87.63
61898;BME280;47850;50.274;18.908;2023-06-22T02:18:12;98304.11;;;18.92;87.25
61898;BME280;47850;50.274;18.908;2023-06-22T02:20:40;98307.73;;;18.89;87.25
61898;BME280;47850;50.274;18.908;2023-06-22T02:23:08;98305.05;;;18.84;87.08
61898;BME280;47850;50.274;18.908;2023-06-22T02:25:36;98307.98;;;18.78;86.88
61898;BME280;47850;50.274;18.908;2023-06-22T02:28:04;98307.95;;;18.76;86.69
61898;BME280;47850;50.274;18.908;2023-06-22T02:30:32;98310.36;;;18.74;86.61
61898;BME280;47850;50.274;18.908;2023-06-22T02:32:59;98311.73;;;18.71;86.19
61898;BME280;47850;50.274;18.908;2023-06-22T02:35:29;98313.80;;;18.67;86.48
61898;BME280;47850;50.274;18.908;2023-06-22T02:37:59;98321.14;;;18.62;86.74
61898;BME280;47850;50.274;18.908;2023-06-22T02:40:29;98325.50;;;18.58;86.90
61898;BME280;47850;50.274;18.908;2023-06-22T02:42:58;98331.27;;;18.54;87.33
61898;BME280;47850;50.274;18.908;2023-06-22T02:45:30;98334.99;;;18.51;87.44
61898;BME280;47850;50.274;18.908;2023-06-22T02:47:58;98337.86;;;18.47;87.76
61898;BME280;47850;50.274;18.908;2023-06-22T02:50:26;98333.70;;;18.45;87.94
61898;BME280;47850;50.274;18.908;2023-06-22T02:52:54;98340.55;;;18.43;87.99
61898;BME280;47850;50.274;18.908;2023-06-22T02:55:21;98343.30;;;18.43;87.95
61898;BME280;47850;50.274;18.908;2023-06-22T02:57:51;98345.91;;;18.44;87.94
61898;BME280;47850;50.274;18.908;2023-06-22T03:00:20;98346.94;;;18.43;88.23
61898;BME280;47850;50.274;18.908;2023-06-22T03:02:49;98352.59;;;18.42;88.53
61898;BME280;47850;50.274;18.908;2023-06-22T03:05:17;98354.95;;;18.41;88.36
61898;BME280;47850;50.274;18.908;2023-06-22T03:07:46;98356.13;;;18.41;88.64
61898;BME280;47850;50.274;18.908;2023-06-22T03:10:15;98361.77;;;18.40;88.79
61898;BME280;47850;50.274;18.908;2023-06-22T03:12:43;98366.27;;;18.40;88.73
61898;BME280;47850;50.274;18.908;2023-06-22T03:15:12;98366.06;;;18.41;88.54
61898;BME280;47850;50.274;18.908;2023-06-22T03:17:40;98366.96;;;18.42;88.69
61898;BME280;47850;50.274;18.908;2023-06-22T03:20:09;98371.14;;;18.42;88.63
61898;BME280;47850;50.274;18.908;2023-06-22T03:22:39;98370.16;;;18.45;88.62
61898;BME280;47850;50.274;18.908;2023-06-22T03:25:08;98379.08;;;18.50;88.45
61898;BME280;47850;50.274;18.908;2023-06-22T03:27:43;98384.67;;;18.53;88.25
61898;BME280;47850;50.274;18.908;2023-06-22T03:30:15;98381.33;;;18.56;88.26
61898;BME280;47850;50.274;18.908;2023-06-22T03:32:43;98381.30;;;18.61;88.21
61898;BME280;47850;50.274;18.908;2023-06-22T03:35:11;98373.86;;;18.62;87.95
61898;BME280;47850;50.274;18.908;2023-06-22T03:37:41;98370.95;;;18.63;88.07
61898;BME280;47850;50.274;18.908;2023-06-22T03:40:09;98371.98;;;18.63;88.01
61898;BME280;47850;50.274;18.908;2023-06-22T03:42:37;98373.38;;;18.67;88.02
61898;BME280;47850;50.274;18.908;2023-06-22T03:45:05;98369.56;;;18.75;87.78
61898;BME280;47850;50.274;18.908;2023-06-22T03:47:33;98373.77;;;18.82;87.48
61898;BME280;47850;50.274;18.908;2023-06-22T03:50:01;98380.77;;;18.89;87.35
61898;BME280;47850;50.274;18.908;2023-06-22T03:52:31;98381.16;;;18.97;86.97
61898;BME280;47850;50.274;18.908;2023-06-22T03:54:59;98380.09;;;19.05;86.85
61898;BME280;47850;50.274;18.908;2023-06-22T03:57:26;98376.37;;;19.09;86.50
61898;BME280;47850;50.274;18.908;2023-06-22T03:59:56;98375.95;;;19.12;86.31
61898;BME280;47850;50.274;18.908;2023-06-22T04:02:25;98371.19;;;19.16;86.35
61898;BME280;47850;50.274;18.908;2023-06-22T04:04:53;98367.65;;;19.23;86.69
61898;BME280;47850;50.274;18.908;2023-06-22T04:07:21;98370.42;;;19.29;86.44
61898;BME280;47850;50.274;18.908;2023-06-22T04:09:49;98373.27;;;19.35;86.26
61898;BME280;47850;50.274;18.908;2023-06-22T04:12:16;98373.70;;;19.42;86.20
61898;BME280;47850;50.274;18.908;2023-06-22T04:14:44;98379.52;;;19.47;86.01
61898;BME280;47850;50.274;18.908;2023-06-22T04:17:12;98385.73;;;19.52;86.02
61898;BME280;47850;50.274;18.908;2023-06-22T04:19:41;98391.30;;;19.59;85.97
61898;BME280;47850;50.274;18.908;2023-06-22T04:22:09;98393.30;;;19.67;85.84
61898;BME280;47850;50.274;18.908;2023-06-22T04:24:37;98394.87;;;19.72;85.89
61898;BME280;47850;50.274;18.908;2023-06-22T04:27:05;98392.25;;;19.77;85.85
61898;BME280;47850;50.274;18.908;2023-06-22T04:29:33;98392.61;;;19.85;85.80
61898;BME280;47850;50.274;18.908;2023-06-22T04:32:01;98392.25;;;19.93;85.92
61898;BME280;47850;50.274;18.908;2023-06-22T04:34:32;98392.25;;;20.00;85.97
61898;BME280;47850;50.274;18.908;2023-06-22T04:37:00;98389.41;;;20.08;86.14
61898;BME280;47850;50.274;18.908;2023-06-22T04:39:28;98392.29;;;20.17;86.03
61898;BME280;47850;50.274;18.908;2023-06-22T04:41:56;98394.94;;;20.28;85.88
61898;BME280;47850;50.274;18.908;2023-06-22T04:44:27;98393.45;;;20.37;85.77
61898;BME280;47850;50.274;18.908;2023-06-22T04:46:57;98399.77;;;20.45;85.67
61898;BME280;47850;50.274;18.908;2023-06-22T04:49:31;98409.85;;;20.56;85.23
61898;BME280;47850;50.274;18.908;2023-06-22T04:52:05;98408.05;;;20.67;85.02
61898;BME280;47850;50.274;18.908;2023-06-22T04:54:35;98413.40;;;20.77;84.73
61898;BME280;47850;50.274;18.908;2023-06-22T04:57:04;98411.60;;;20.87;84.47
61898;BME280;47850;50.274;18.908;2023-06-22T04:59:32;98410.16;;;20.96;84.21
61898;BME280;47850;50.274;18.908;2023-06-22T05:02:01;98408.99;;;21.07;84.03
61898;BME280;47850;50.274;18.908;2023-06-22T05:04:30;98414.40;;;21.20;83.55
61898;BME280;47850;50.274;18.908;2023-06-22T05:07:03;98411.73;;;21.34;82.87
61898;BME280;47850;50.274;18.908;2023-06-22T05:09:31;98408.55;;;21.46;82.47
61898;BME280;47850;50.274;18.908;2023-06-22T05:11:59;98410.63;;;21.59;82.14
61898;BME280;47850;50.274;18.908;2023-06-22T05:14:29;98410.01;;;21.75;81.63
61898;BME280;47850;50.274;18.908;2023-06-22T05:16:57;98414.23;;;21.95;81.16
61898;BME280;47850;50.274;18.908;2023-06-22T05:19:26;98419.05;;;22.13;80.58
61898;BME280;47850;50.274;18.908;2023-06-22T05:22:01;98425.94;;;22.29;79.75
61898;BME280;47850;50.274;18.908;2023-06-22T05:24:29;98429.17;;;22.42;79.07
61898;BME280;47850;50.274;18.908;2023-06-22T05:26:56;98428.66;;;22.56;78.52
61898;BME280;47850;50.274;18.908;2023-06-22T05:29:24;98425.66;;;22.71;77.78
61898;BME280;47850;50.274;18.908;2023-06-22T05:31:54;98426.23;;;22.87;77.42
61898;BME280;47850;50.274;18.908;2023-06-22T05:34:21;98428.15;;;23.02;76.69
61898;BME280;47850;50.274;18.908;2023-06-22T05:36:49;98435.71;;;23.13;76.08
61898;BME280;47850;50.274;18.908;2023-06-22T05:39:17;98435.73;;;23.26;75.78
61898;BME280;47850;50.274;18.908;2023-06-22T05:41:46;98437.31;;;23.35;75.00
61898;BME280;47850;50.274;18.908;2023-06-22T05:44:14;98437.30;;;23.42;74.93
61898;BME280;47850;50.274;18.908;2023-06-22T05:46:43;98438.33;;;23.50;74.78
61898;BME280;47850;50.274;18.908;2023-06-22T05:49:12;98440.54;;;23.57;73.77
61898;BME280;47850;50.274;18.908;2023-06-22T05:51:41;98444.17;;;23.59;72.81
61898;BME280;47850;50.274;18.908;2023-06-22T05:54:08;98446.17;;;23.61;72.24
61898;BME280;47850;50.274;18.908;2023-06-22T05:56:36;98446.73;;;23.58;71.89
61898;BME280;47850;50.274;18.908;2023-06-22T05:59:04;98445.64;;;23.50;71.63
61898;BME280;47850;50.274;18.908;2023-06-22T06:01:32;98449.46;;;23.35;71.44
61898;BME280;47850;50.274;18.908;2023-06-22T06:04:03;98447.33;;;23.22;71.98
61898;BME280;47850;50.274;18.908;2023-06-22T06:06:31;98449.63;;;23.16;72.19
61898;BME280;47850;50.274;18.908;2023-06-22T06:08:59;98445.79;;;23.05;72.05
61898;BME280;47850;50.274;18.908;2023-06-22T06:11:27;98447.92;;;22.98;72.24
61898;BME280;47850;50.274;18.908;2023-06-22T06:13:55;98452.54;;;22.92;72.19
61898;BME280;47850;50.274;18.908;2023-06-22T06:16:23;98453.97;;;22.86;72.32
61898;BME280;47850;50.274;18.908;2023-06-22T06:18:51;98458.55;;;22.80;72.59
61898;BME280;47850;50.274;18.908;2023-06-22T06:21:20;98466.48;;;22.74;72.66
61898;BME280;47850;50.274;18.908;2023-06-22T06:23:48;98467.98;;;22.69;72.96
61898;BME280;47850;50.274;18.908;2023-06-22T06:26:16;98473.77;;;22.67;73.00
61898;BME280;47850;50.274;18.908;2023-06-22T06:28:45;98472.05;;;22.71;73.06
61898;BME280;47850;50.274;18.908;2023-06-22T06:31:13;98469.89;;;22.75;73.12
61898;BME280;47850;50.274;18.908;2023-06-22T06:33:44;98466.02;;;22.80;73.21
61898;BME280;47850;50.274;18.908;2023-06-22T06:36:12;98464.14;;;22.87;73.04
61898;BME280;47850;50.274;18.908;2023-06-22T06:38:40;98463.18;;;22.89;73.05
61898;BME280;47850;50.274;18.908;2023-06-22T06:41:07;98464.55;;;22.98;73.20
61898;BME280;47850;50.274;18.908;2023-06-22T06:43:35;98465.48;;;23.06;73.00
61898;BME280;47850;50.274;18.908;2023-06-22T06:46:03;98463.99;;;23.14;72.73
61898;BME280;47850;50.274;18.908;2023-06-22T06:48:31;98460.52;;;23.19;72.47
61898;BME280;47850;50.274;18.908;2023-06-22T06:50:59;98457.74;;;23.23;72.50
61898;BME280;47850;50.274;18.908;2023-06-22T06:53:27;98460.67;;;23.30;72.29
61898;BME280;47850;50.274;18.908;2023-06-22T06:55:56;98467.12;;;23.35;71.73
61898;BME280;47850;50.274;18.908;2023-06-22T06:58:24;98460.11;;;23.39;69.51
61898;BME280;47850;50.274;18.908;2023-06-22T07:00:52;98461.00;;;23.44;68.63
61898;BME280;47850;50.274;18.908;2023-06-22T07:03:20;98467.19;;;23.50;67.75
61898;BME280;47850;50.274;18.908;2023-06-22T07:05:48;98468.52;;;23.56;66.37
61898;BME280;47850;50.274;18.908;2023-06-22T07:08:15;98468.36;;;23.61;65.88
61898;BME280;47850;50.274;18.908;2023-06-22T07:10:43;98465.02;;;23.65;65.55
61898;BME280;47850;50.274;18.908;2023-06-22T07:13:11;98464.85;;;23.70;65.44
61898;BME280;47850;50.274;18.908;2023-06-22T07:15:39;98467.30;;;23.74;64.87
61898;BME280;47850;50.274;18.908;2023-06-22T07:18:07;98470.96;;;23.77;64.10
61898;BME280;47850;50.274;18.908;2023-06-22T07:20:34;98473.03;;;23.79;63.78
61898;BME280;47850;50.274;18.908;2023-06-22T07:23:03;98474.45;;;23.81;63.93
61898;BME280;47850;50.274;18.908;2023-06-22T07:25:30;98476.98;;;23.86;63.63
61898;BME280;47850;50.274;18.908;2023-06-22T07:28:01;98474.35;;;23.94;63.16
61898;BME280;47850;50.274;18.908;2023-06-22T07:30:30;98473.87;;;24.01;62.94
61898;BME280;47850;50.274;18.908;2023-06-22T07:32:59;98472.96;;;24.08;62.97
61898;BME280;47850;50.274;18.908;2023-06-22T07:35:31;98473.99;;;24.13;62.79
61898;BME280;47850;50.274;18.908;2023-06-22T07:37:59;98473.73;;;24.18;62.90
61898;BME280;47850;50.274;18.908;2023-06-22T07:40:27;98469.01;;;24.27;62.39
61898;BME280;47850;50.274;18.908;2023-06-22T07:42:55;98474.61;;;24.35;62.10
61898;BME280;47850;50.274;18.908;2023-06-22T07:45:23;98473.55;;;24.41;61.70
61898;BME280;47850;50.274;18.908;2023-06-22T07:47:51;98474.65;;;24.46;61.46
61898;BME280;47850;50.274;18.908;2023-06-22T07:50:18;98477.41;;;24.51;61.20
61898;BME280;47850;50.274;18.908;2023-06-22T07:52:46;98486.45;;;24.58;60.96
61898;BME280;47850;50.274;18.908;2023-06-22T07:55:15;98492.71;;;24.62;60.47
61898;BME280;47850;50.274;18.908;2023-06-22T07:57:43;98488.25;;;24.65;60.27
61898;BME280;47850;50.274;18.908;2023-06-22T08:00:12;98487.36;;;24.72;60.14
61898;BME280;47850;50.274;18.908;2023-06-22T08:02:46;98484.94;;;24.79;59.46
61898;BME280;47850;50.274;18.908;2023-06-22T08:05:15;98484.98;;;24.83;59.51
61898;BME280;47850;50.274;18.908;2023-06-22T08:07:43;98489.64;;;24.90;59.13
61898;BME280;47850;50.274;18.908;2023-06-22T08:10:12;98490.02;;;24.92;58.22
61898;BME280;47850;50.274;18.908;2023-06-22T08:12:40;98489.23;;;24.93;58.11
61898;BME280;47850;50.274;18.908;2023-06-22T08:15:08;98493.26;;;24.97;58.41
61898;BME280;47850;50.274;18.908;2023-06-22T08:17:38;98503.09;;;25.04;58.09
61898;BME280;47850;50.274;18.908;2023-06-22T08:20:07;98500.84;;;25.06;58.76
61898;BME280;47850;50.274;18.908;2023-06-22T08:22:42;98497.25;;;25.07;58.78
61898;BME280;47850;50.274;18.908;2023-06-22T08:25:11;98499.67;;;25.13;59.40
61898;BME280;47850;50.274;18.908;2023-06-22T08:27:39;98503.60;;;25.23;58.97
61898;BME280;47850;50.274;18.908;2023-06-22T08:30:08;98511.08;;;25.34;58.36
61898;BME280;47850;50.274;18.908;2023-06-22T08:32:38;98513.83;;;25.44;58.38
61898;BME280;47850;50.274;18.908;2023-06-22T08:35:07;98512.77;;;25.57;58.34
61898;BME280;47850;50.274;18.908;2023-06-22T08:37:36;98517.63;;;25.65;56.52
61898;BME280;47850;50.274;18.908;2023-06-22T08:40:06;98520.29;;;25.72;56.85
61898;BME280;47850;50.274;18.908;2023-06-22T08:42:36;98520.46;;;25.86;56.58
61898;BME280;47850;50.274;18.908;2023-06-22T08:45:06;98516.89;;;25.99;56.26
61898;BME280;47850;50.274;18.908;2023-06-22T08:47:33;98511.95;;;26.08;55.43
61898;BME280;47850;50.274;18.908;2023-06-22T08:50:01;98511.92;;;26.19;55.70
61898;BME280;47850;50.274;18.908;2023-06-22T08:52:31;98513.41;;;26.28;55.15
61898;BME280;47850;50.274;18.908;2023-06-22T08:54:58;98514.49;;;26.38;54.22
61898;BME280;47850;50.274;18.908;2023-06-22T08:57:27;98518.98;;;26.44;53.40
61898;BME280;47850;50.274;18.908;2023-06-22T08:59:55;98514.29;;;26.48;53.09
61898;BME280;47850;50.274;18.908;2023-06-22T09:02:26;98515.59;;;26.46;52.55
61898;BME280;47850;50.274;18.908;2023-06-22T09:04:58;98519.94;;;26.50;52.23
61898;BME280;47850;50.274;18.908;2023-06-22T09:07:25;98508.87;;;26.53;51.81
61898;BME280;47850;50.274;18.908;2023-06-22T09:09:53;98513.38;;;26.63;52.50
61898;BME280;47850;50.274;18.908;2023-06-22T09:12:21;98519.96;;;26.73;51.45
61898;BME280;47850;50.274;18.908;2023-06-22T09:14:53;98507.94;;;26.63;51.67
61898;BME280;47850;50.274;18.908;2023-06-22T09:17:22;98504.41;;;26.71;52.21
61898;BME280;47850;50.274;18.908;2023-06-22T09:19:50;98507.52;;;26.84;51.55
61898;BME280;47850;50.274;18.908;2023-06-22T09:22:18;98505.83;;;26.90;51.03
61898;BME280;47850;50.274;18.908;2023-06-22T09:24:45;98505.42;;;26.91;51.13
61898;BME280;47850;50.274;18.908;2023-06-22T09:27:13;98501.33;;;26.92;50.71
61898;BME280;47850;50.274;18.908;2023-06-22T09:29:41;98494.34;;;26.94;50.63
61898;BME280;47850;50.274;18.908;2023-06-22T09:32:09;98487.13;;;27.00;50.75
61898;BME280;47850;50.274;18.908;2023-06-22T09:34:37;98483.52;;;27.12;50.11
61898;BME280;47850;50.274;18.908;2023-06-22T09:37:05;98477.23;;;27.20;49.81
61898;BME280;47850;50.274;18.908;2023-06-22T09:39:33;98475.61;;;27.32;49.90
61898;BME280;47850;50.274;18.908;2023-06-22T09:42:00;98474.65;;;27.43;49.06
61898;BME280;47850;50.274;18.908;2023-06-22T09:44:28;98478.96;;;27.52;48.92
61898;BME280;47850;50.274;18.908;2023-06-22T09:46:56;98482.23;;;27.62;48.53
61898;BME280;47850;50.274;18.908;2023-06-22T09:49:24;98477.27;;;27.71;48.14
61898;BME280;47850;50.274;18.908;2023-06-22T09:51:52;98474.47;;;27.84;47.51
61898;BME280;47850;50.274;18.908;2023-06-22T09:54:20;98471.94;;;27.87;47.13
61898;BME280;47850;50.274;18.908;2023-06-22T09:56:48;98466.25;;;27.99;47.42
61898;BME280;47850;50.274;18.908;2023-06-22T09:59:15;98464.91;;;28.16;47.01
61898;BME280;47850;50.274;18.908;2023-06-22T10:01:43;98468.52;;;28.28;45.40
61898;BME280;47850;50.274;18.908;2023-06-22T10:04:11;98467.50;;;28.30;45.14
61898;BME280;47850;50.274;18.908;2023-06-22T10:06:39;98461.44;;;28.37;45.62
61898;BME280;47850;50.274;18.908;2023-06-22T10:09:08;98464.36;;;28.50;45.56
61898;BME280;47850;50.274;18.908;2023-06-22T10:11:36;98459.55;;;28.68;45.52
61898;BME280;47850;50.274;18.908;2023-06-22T10:14:04;98456.80;;;28.92;45.40
61898;BME280;47850;50.274;18.908;2023-06-22T10:16:33;98452.58;;;29.07;44.15
61898;BME280;47850;50.274;18.908;2023-06-22T10:19:03;98453.54;;;29.17;44.13
61898;BME280;47850;50.274;18.908;2023-06-22T10:21:30;98454.33;;;29.27;43.79
61898;BME280;47850;50.274;18.908;2023-06-22T10:23:59;98451.64;;;29.30;42.74
61898;BME280;47850;50.274;18.908;2023-06-22T10:26:29;98456.20;;;29.20;42.43
61898;BME280;47850;50.274;18.908;2023-06-22T10:28:57;98453.45;;;29.17;42.86
61898;BME280;47850;50.274;18.908;2023-06-22T10:31:25;98452.29;;;29.19;42.72
61898;BME280;47850;50.274;18.908;2023-06-22T10:33:54;98448.44;;;29.22;43.45
61898;BME280;47850;50.274;18.908;2023-06-22T10:36:22;98446.27;;;29.39;42.83
61898;BME280;47850;50.274;18.908;2023-06-22T10:38:50;98451.08;;;29.61;42.85
61898;BME280;47850;50.274;18.908;2023-06-22T10:41:18;98457.66;;;29.88;42.04
61898;BME280;47850;50.274;18.908;2023-06-22T10:43:45;98455.88;;;29.99;41.05
61898;BME280;47850;50.274;18.908;2023-06-22T10:46:13;98452.49;;;30.04;40.86
61898;BME280;47850;50.274;18.908;2023-06-22T10:48:41;98445.33;;;30.17;40.98
61898;BME280;47850;50.274;18.908;2023-06-22T10:51:09;98448.31;;;30.33;40.73
61898;BME280;47850;50.274;18.908;2023-06-22T10:53:36;98451.61;;;30.46;40.13
61898;BME280;47850;50.274;18.908;2023-06-22T10:56:04;98448.63;;;30.58;39.68
61898;BME280;47850;50.274;18.908;2023-06-22T10:58:32;98447.65;;;30.64;39.40
61898;BME280;47850;50.274;18.908;2023-06-22T11:01:00;98441.84;;;30.67;39.15
61898;BME280;47850;50.274;18.908;2023-06-22T11:03:28;98440.83;;;30.87;38.95
61898;BME280;47850;50.274;18.908;2023-06-22T11:05:55;98438.88;;;31.05;38.47
61898;BME280;47850;50.274;18.908;2023-06-22T11:08:23;98437.41;;;31.23;38.51
61898;BME280;47850;50.274;18.908;2023-06-22T11:10:51;98435.09;;;31.47;38.05
61898;BME280;47850;50.274;18.908;2023-06-22T11:13:19;98432.41;;;31.66;37.14
61898;BME280;47850;50.274;18.908;2023-06-22T11:15:47;98435.59;;;31.86;36.62
61898;BME280;47850;50.274;18.908;2023-06-22T11:18:15;98434.52;;;31.84;36.33
61898;BME280;47850;50.274;18.908;2023-06-22T11:20:43;98430.30;;;31.64;36.49
61898;BME280;47850;50.274;18.908;2023-06-22T11:23:11;98429.80;;;31.77;36.36
61898;BME280;47850;50.274;18.908;2023-06-22T11:25:39;98429.45;;;32.01;35.93
61898;BME280;47850;50.274;18.908;2023-06-22T11:28:09;98428.15;;;32.22;35.80
61898;BME280;47850;50.274;18.908;2023-06-22T11:30:37;98424.34;;;32.34;35.52
61898;BME280;47850;50.274;18.908;2023-06-22T11:33:05;98423.91;;;32.57;35.40
61898;BME280;47850;50.274;18.908;2023-06-22T11:35:33;98418.19;;;32.84;35.22
61898;BME280;47850;50.274;18.908;2023-06-22T11:38:00;98421.69;;;33.09;34.90
61898;BME280;47850;50.274;18.908;2023-06-22T11:40:28;98419.71;;;33.34;34.24
61898;BME280;47850;50.274;18.908;2023-06-22T11:42:56;98415.80;;;33.55;33.90
61898;BME280;47850;50.274;18.908;2023-06-22T11:45:24;98415.79;;;33.84;32.98
61898;BME280;47850;50.274;18.908;2023-06-22T11:47:52;98421.02;;;33.82;32.29
61898;BME280;47850;50.274;18.908;2023-06-22T11:50:20;98414.52;;;34.02;32.44
61898;BME280;47850;50.274;18.908;2023-06-22T11:52:48;98409.66;;;34.34;32.39
61898;BME280;47850;50.274;18.908;2023-06-22T11:55:16;98404.33;;;34.66;31.99
61898;BME280;47850;50.274;18.908;2023-06-22T11:57:57;98406.98;;;34.74;30.96
61898;BME280;47850;50.274;18.908;2023-06-22T12:00:27;98401.02;;;34.66;31.48
61898;BME280;47850;50.274;18.908;2023-06-22T12:02:55;98396.83;;;34.76;31.32
61898;BME280;47850;50.274;18.908;2023-06-22T12:05:24;98388.55;;;34.63;31.21
61898;BME280;47850;50.274;18.908;2023-06-22T12:07:55;98390.41;;;34.37;31.40
61898;BME280;47850;50.274;18.908;2023-06-22T12:10:25;98389.09;;;34.38;31.92
61898;BME280;47850;50.274;18.908;2023-06-22T12:12:56;98391.69;;;34.23;32.44
61898;BME280;47850;50.274;18.908;2023-06-22T12:15:26;98387.73;;;34.09;32.80
61898;BME280;47850;50.274;18.908;2023-06-22T12:17:54;98385.61;;;34.02;32.73
61898;BME280;47850;50.274;18.908;2023-06-22T12:20:22;98385.08;;;34.09;32.69
61898;BME280;47850;50.274;18.908;2023-06-22T12:22:50;98377.27;;;34.43;32.53
61898;BME280;47850;50.274;18.908;2023-06-22T12:25:19;98374.80;;;34.56;32.27
61898;BME280;47850;50.274;18.908;2023-06-22T12:27:47;98375.05;;;34.49;32.44
61898;BME280;47850;50.274;18.908;2023-06-22T12:30:16;98372.44;;;34.19;32.05
61898;BME280;47850;50.274;18.908;2023-06-22T12:32:44;98366.17;;;33.79;32.58
61898;BME280;47850;50.274;18.908;2023-06-22T12:35:11;98363.43;;;33.69;32.76
61898;BME280;47850;50.274;18.908;2023-06-22T12:37:42;98366.00;;;33.75;32.43
61898;BME280;47850;50.274;18.908;2023-06-22T12:40:10;98356.98;;;33.55;31.66
61898;BME280;47850;50.274;18.908;2023-06-22T12:42:38;98351.45;;;33.48;32.37
61898;BME280;47850;50.274;18.908;2023-06-22T12:45:06;98354.23;;;33.87;31.82
61898;BME280;47850;50.274;18.908;2023-06-22T12:47:34;98348.64;;;34.38;31.26
61898;BME280;47850;50.274;18.908;2023-06-22T12:50:02;98350.30;;;34.74;30.51
61898;BME280;47850;50.274;18.908;2023-06-22T12:52:31;98344.44;;;34.90;30.24
61898;BME280;47850;50.274;18.908;2023-06-22T12:54:59;98344.94;;;35.00;30.20
61898;BME280;47850;50.274;18.908;2023-06-22T12:57:28;98342.46;;;35.27;29.88
61898;BME280;47850;50.274;18.908;2023-06-22T12:59:55;98338.20;;;35.51;30.10
61898;BME280;47850;50.274;18.908;2023-06-22T13:02:23;98337.94;;;35.59;29.37
61898;BME280;47850;50.274;18.908;2023-06-22T13:04:51;98337.92;;;35.29;29.43
61898;BME280;47850;50.274;18.908;2023-06-22T13:07:19;98330.95;;;34.94;29.89